Time;durP1;ratioP1;P1;durP2;ratioP2;P2;SDS_P1;SDS_P2;PMS_P1;PMS_P2;Temp;Humidity;BMP_temperature;BMP_pressure;BME280_temperature;BME280_humidity;BME280_pressure;Samples;Min_cycle;Max_cycle;Signal;HPM_P1;HPM_P2
2024/04/12 00:02:07;;;;;;;10.00;7.60;;;;;;;14.08;72.45;99736.87;109124;1253;59103;-88
2024/04/12 00:04:37;;;;;;;9.20;6.70;;;;;;;14.07;72.45;99736.91;109089;1256;73990;-88
2024/04/12 00:07:13;;;;;;;7.40;6.30;;;;;;;14.05;72.57;99734.14;109166;1252;61070;-88
2024/04/12 00:09:43;;;;;;;9.70;7.30;;;;;;;14.04;73.18;99736.97;109113;1253;71950;-91
2024/04/12 00:12:12;;;;;;;7.80;7.00;;;;;;;14.01;73.53;99741.09;109027;1252;59314;-88
2024/04/12 00:14:43;;;;;;;9.70;7.60;;;;;;;13.98;73.58;99736.05;109070;1254;60489;-90
2024/04/12 00:17:15;;;;;;;13.00;7.70;;;;;;;13.94;73.69;99740.42;109045;1254;72577;-89
2024/04/12 00:19:47;;;;;;;9.40;6.70;;;;;;;13.92;73.74;99740.77;109168;1253;73213;-90
2024/04/12 00:22:14;;;;;;;7.50;6.70;;;;;;;13.89;73.79;99738.75;109209;1252;72796;-91
2024/04/12 00:24:41;;;;;;;7.50;6.40;;;;;;;13.87;73.90;99736.55;109043;1253;60547;-89
2024/04/12 00:27:15;;;;;;;8.50;6.50;;;;;;;13.86;73.79;99735.55;109095;1252;60423;-90
2024/04/12 00:29:48;;;;;;;7.50;6.10;;;;;;;13.86;73.69;99731.41;109089;1254;72976;-90
2024/04/12 00:32:18;;;;;;;8.40;6.40;;;;;;;13.84;73.75;99731.91;109456;1253;74587;-90
2024/04/12 00:34:47;;;;;;;7.50;6.70;;;;;;;13.81;73.85;99728.63;109511;1253;72701;-89
2024/04/12 00:37:17;;;;;;;9.20;7.40;;;;;;;13.80;73.75;99725.32;109504;1252;58523;-90
2024/04/12 00:39:48;;;;;;;8.70;6.70;;;;;;;13.78;73.86;99720.19;109246;1254;59047;-89
2024/04/12 00:42:31;;;;;;;8.60;6.40;;;;;;;13.77;74.12;99722.07;109140;1254;72797;-91
2024/04/12 00:45:03;;;;;;;7.80;7.00;;;;;;;13.75;74.06;99721.08;109149;1254;74331;-90
2024/04/12 00:47:37;;;;;;;8.90;6.80;;;;;;;13.74;74.02;99722.92;109250;1253;72782;-90
2024/04/12 00:50:06;;;;;;;8.80;6.90;;;;;;;13.74;73.95;99723.11;109399;1254;61095;-89
2024/04/12 00:52:37;;;;;;;7.80;6.30;;;;;;;13.76;74.08;99723.74;109120;1252;61092;-91
2024/04/12 00:55:09;;;;;;;;;;;;;;;13.77;74.18;99723.86;109306;1254;73817;-90
2024/04/12 00:57:40;;;;;;;5.80;5.30;;;;;;;13.79;74.13;99729.70;109416;1254;71882;-90
2024/04/12 01:00:19;;;;;;;7.20;6.10;;;;;;;13.81;73.98;99726.70;109485;1253;71713;-89
2024/04/12 01:02:49;;;;;;;6.60;5.50;;;;;;;13.83;73.56;99727.06;109408;1253;61646;-90
2024/04/12 01:05:23;;;;;;;7.90;5.40;;;;;;;13.86;73.39;99724.22;109415;1253;59175;-91
2024/04/12 01:08:11;;;;;;;5.70;4.90;;;;;;;13.87;73.14;99722.70;109290;1254;72922;-89
2024/04/12 01:10:44;;;;;;;7.70;5.20;;;;;;;13.90;72.91;99723.23;109188;1253;73009;-89
2024/04/12 01:13:15;;;;;;;7.80;5.40;;;;;;;13.91;72.78;99723.50;109139;1253;73345;-90
2024/04/12 01:15:44;;;;;;;7.20;5.60;;;;;;;13.94;72.38;99722.98;109374;1252;59477;-90
2024/04/12 01:18:14;;;;;;;6.20;5.00;;;;;;;13.94;71.83;99722.98;109269;1252;59222;-89
2024/04/12 01:20:56;;;;;;;8.20;5.20;;;;;;;13.93;71.61;99725.56;109133;1253;74762;-90
2024/04/12 01:23:30;;;;;;;6.90;5.10;;;;;;;13.91;71.60;99725.34;109015;1253;75157;-91
2024/04/12 01:26:13;;;;;;;6.80;5.60;;;;;;;13.89;71.62;99720.60;108843;1254;72863;-89
2024/04/12 01:28:55;;;;;;;13.20;6.90;;;;;;;13.86;71.69;99724.95;109047;1253;60117;-89
2024/04/12 01:31:34;;;;;;;6.50;5.10;;;;;;;13.84;71.70;99725.20;109045;1252;60413;-90
2024/04/12 01:34:13;;;;;;;6.60;5.60;;;;;;;13.83;71.79;99724.22;109081;1252;74132;-89
2024/04/12 01:36:43;;;;;;;6.70;5.00;;;;;;;13.82;71.91;99723.73;109083;1254;73095;-90
2024/04/12 01:39:12;;;;;;;5.70;4.90;;;;;;;13.81;72.15;99725.21;108911;1254;72159;-91
2024/04/12 01:41:41;;;;;;;10.60;5.00;;;;;;;13.82;72.06;99722.49;108985;1254;58773;-88
2024/04/12 01:44:09;;;;;;;7.30;5.00;;;;;;;13.81;72.01;99719.10;109096;1254;59547;-89
2024/04/12 01:46:39;;;;;;;6.00;5.30;;;;;;;13.82;71.60;99719.98;109422;1254;58582;-89
2024/04/12 01:49:10;;;;;;;6.30;4.60;;;;;;;13.80;71.18;99723.67;109216;1254;73495;-89
2024/04/12 01:51:41;;;;;;;7.80;5.30;;;;;;;13.80;71.17;99720.48;109129;1254;72475;-88
2024/04/12 01:54:17;;;;;;;6.30;5.10;;;;;;;13.80;71.30;99720.64;108946;1253;60538;-90
2024/04/12 01:56:50;;;;;;;9.90;5.00;;;;;;;13.79;71.18;99720.69;108857;1254;60141;-90
2024/04/12 01:59:23;;;;;;;6.30;4.90;;;;;;;13.79;70.86;99720.52;108917;1253;72792;-89
2024/04/12 02:01:55;;;;;;;5.80;5.20;;;;;;;13.78;70.74;99723.45;108808;1253;75167;-89
2024/04/12 02:04:30;;;;;;;6.00;4.30;;;;;;;13.77;70.76;99725.83;109007;1254;71118;-89
2024/04/12 02:07:00;;;;;;;6.10;4.50;;;;;;;13.76;70.64;99723.20;109206;1254;61937;-88
2024/04/12 02:09:30;;;;;;;4.90;4.40;;;;;;;13.74;70.38;99722.90;109465;1253;59698;-90
2024/04/12 02:12:00;;;;;;;5.30;4.30;;;;;;;13.75;70.23;99726.13;109122;1254;72537;-88
2024/04/12 02:14:29;;;;;;;6.80;5.00;;;;;;;13.75;70.19;99723.45;109090;1253;75564;-89
2024/04/12 02:16:58;;;;;;;8.00;5.40;;;;;;;13.74;70.12;99724.02;109076;1254;72027;-88
2024/04/12 02:19:36;;;;;;;5.70;4.50;;;;;;;13.72;69.95;99722.50;108944;1254;60222;-89
2024/04/12 02:22:10;;;;;;;6.40;5.10;;;;;;;13.70;69.86;99721.52;109078;1253;59338;-88
2024/04/12 02:24:44;;;;;;;11.80;4.20;;;;;;;13.68;69.79;99718.82;109244;1253;73914;-88
2024/04/12 02:27:14;;;;;;;7.30;5.20;;;;;;;13.65;69.80;99720.95;108851;1254;73359;-90
2024/04/12 02:29:43;;;;;;;7.60;4.60;;;;;;;13.64;69.81;99723.39;108586;1254;72505;-90
2024/04/12 02:32:20;;;;;;;5.90;4.80;;;;;;;13.62;69.71;99726.04;108589;1257;135343;-90
2024/04/12 02:34:49;;;;;;;6.60;5.20;;;;;;;13.60;69.82;99725.58;108960;1256;61011;-91
2024/04/12 02:37:21;;;;;;;6.10;4.20;;;;;;;13.59;69.78;99722.45;108779;1254;73840;-90
2024/04/12 02:39:53;;;;;;;7.50;4.10;;;;;;;13.58;69.80;99722.33;108617;1254;73481;-90
2024/04/12 02:42:22;;;;;;;5.80;4.40;;;;;;;13.59;69.74;99726.95;109116;1255;72807;-88
2024/04/12 02:44:51;;;;;;;5.30;4.50;;;;;;;13.59;69.70;99732.70;109045;1254;59497;-89
2024/04/12 02:47:19;;;;;;;5.70;4.50;;;;;;;13.60;69.54;99733.70;109362;1254;59092;-90
2024/04/12 02:49:52;;;;;;;6.10;4.50;;;;;;;13.61;69.48;99732.37;109424;1254;74040;-90
2024/04/12 02:52:19;;;;;;;6.30;4.80;;;;;;;13.63;69.29;99729.41;109492;1253;74211;-89
2024/04/12 02:54:51;;;;;;;7.10;5.10;;;;;;;13.65;69.26;99728.17;109112;1253;72653;-88
2024/04/12 02:57:19;;;;;;;7.00;4.00;;;;;;;13.67;69.13;99723.88;109086;1253;61452;-88
2024/04/12 02:59:52;;;;;;;6.40;5.80;;;;;;;13.70;69.07;99721.39;109003;1254;59330;-90
2024/04/12 03:02:24;;;;;;;9.60;6.90;;;;;;;13.73;69.16;99721.02;108846;1254;72844;-88
2024/04/12 03:04:53;;;;;;;10.90;7.30;;;;;;;13.75;69.26;99719.13;108512;1254;76311;-89
2024/04/12 03:07:20;;;;;;;9.30;5.40;;;;;;;13.76;69.07;99718.52;109129;1254;72754;-89
2024/04/12 03:09:46;;;;;;;14.20;12.00;;;;;;;13.77;68.25;99713.59;109106;1257;59157;-90
2024/04/12 03:12:17;;;;;;;19.70;17.90;;;;;;;13.76;68.01;99717.63;108985;1255;60517;-89
2024/04/12 03:14:48;;;;;;;16.50;14.90;;;;;;;13.74;68.42;99722.73;109024;1262;72346;-89
2024/04/12 03:17:17;;;;;;;16.50;14.80;;;;;;;13.73;68.83;99724.08;109006;1254;74142;-90
2024/04/12 03:19:56;;;;;;;16.00;14.30;;;;;;;13.72;68.99;99721.96;109073;1257;70842;-89
2024/04/12 03:22:22;;;;;;;18.80;13.20;;;;;;;13.71;69.47;99722.38;109170;1255;61481;-90
2024/04/12 03:24:52;;;;;;;16.00;14.30;;;;;;;13.69;69.97;99720.73;109073;1254;61066;-90
2024/04/12 03:27:23;;;;;;;15.70;14.10;;;;;;;13.68;70.48;99717.70;109074;1254;73103;-89
2024/04/12 03:29:58;;;;;;;15.90;13.60;;;;;;;13.67;70.92;99719.42;109297;1254;74798;-89
2024/04/12 03:32:32;;;;;;;16.50;14.20;;;;;;;13.65;71.21;99720.23;108957;1254;71581;-89
2024/04/12 03:35:08;;;;;;;17.20;14.10;;;;;;;13.63;71.41;99721.61;108796;1254;61078;-90
2024/04/12 03:40:44;;;;;;;15.70;14.00;;;;;;;13.58;72.01;99722.10;109419;1253;73854;-89
2024/04/12 03:43:21;;;;;;;15.40;13.90;;;;;;;13.55;72.20;99726.79;109314;1254;74438;-89
2024/04/12 03:46:14;;;;;;;13.50;12.10;;;;;;;13.53;72.44;99729.66;109213;1254;71498;-90
2024/04/12 03:48:44;;;;;;;12.70;11.40;;;;;;;13.50;72.59;99732.12;109067;1254;60009;-89
2024/04/12 03:51:10;;;;;;;19.20;11.80;;;;;;;13.48;72.58;99733.48;109100;1254;60196;-89
2024/04/12 03:53:44;;;;;;;17.10;10.10;;;;;;;13.47;72.67;99736.84;109324;1254;73918;-89
2024/04/12 03:56:19;;;;;;;10.40;6.90;;;;;;;13.46;72.50;99740.69;109082;1254;73838;-88
2024/04/12 03:58:46;;;;;;;13.90;7.60;;;;;;;13.44;72.27;99743.67;108762;1254;59733;-90
2024/04/12 04:01:13;;;;;;;8.50;5.80;;;;;;;13.44;72.04;99749.98;108528;1254;59829;-90
2024/04/12 04:03:53;;;;;;;10.80;5.80;;;;;;;13.44;71.74;99751.95;108818;1254;60968;-89
2024/04/12 04:06:35;;;;;;;11.30;5.20;;;;;;;13.45;71.39;99753.48;108550;1259;72772;-87
2024/04/12 04:09:06;;;;;;;9.10;6.10;;;;;;;13.46;71.24;99751.80;108189;1254;74578;-87
2024/04/12 04:11:43;;;;;;;13.50;5.70;;;;;;;13.47;71.19;99753.73;107765;1254;71118;-87
2024/04/12 04:14:14;;;;;;;17.60;6.20;;;;;;;13.48;71.12;99756.20;108403;1257;60507;-88
2024/04/12 04:16:41;;;;;;;20.20;8.20;;;;;;;13.48;71.23;99765.20;105917;1254;61132;-88
2024/04/12 04:19:12;;;;;;;13.50;7.00;;;;;;;13.47;71.13;99764.55;105879;1262;73819;-89
2024/04/12 04:21:39;;;;;;;13.50;7.60;;;;;;;13.44;71.31;99766.69;105967;1257;75505;-89
2024/04/12 04:24:10;;;;;;;10.50;6.50;;;;;;;13.42;71.56;99768.63;106329;1257;72844;-89
2024/04/12 04:26:42;;;;;;;10.70;6.50;;;;;;;13.39;71.82;99770.58;105936;1257;62654;-89
2024/04/12 04:29:11;;;;;;;10.40;5.60;;;;;;;13.37;72.16;99775.55;105694;1256;61145;-91
2024/04/12 04:31:51;;;;;;;13.60;5.90;;;;;;;13.34;72.37;99770.86;105703;1254;73418;-92
2024/04/12 04:34:19;;;;;;;8.60;5.00;;;;;;;13.33;72.39;99765.73;105672;1259;73474;-91
2024/04/12 04:36:49;;;;;;;7.40;5.90;;;;;;;13.31;72.27;99760.03;105797;1260;73505;-91
2024/04/12 04:39:21;;;;;;;6.70;4.90;;;;;;;13.30;72.26;99755.07;105810;1256;62127;-90
2024/04/12 04:41:52;;;;;;;15.10;5.50;;;;;;;13.29;72.20;99759.43;105721;1256;61071;-92
2024/04/12 04:44:18;;;;;;;12.00;5.60;;;;;;;13.28;71.96;99764.33;105540;1262;74798;-91
2024/04/12 04:46:49;;;;;;;6.70;4.80;;;;;;;13.28;72.06;99765.60;105602;1257;61241;-91
2024/04/12 04:49:16;;;;;;;9.10;5.20;;;;;;;13.28;72.09;99769.94;105776;1260;73184;-90
2024/04/12 04:51:43;;;;;;;7.30;4.90;;;;;;;13.27;72.01;99770.90;105627;1262;61434;-90
2024/04/12 04:54:13;;;;;;;9.40;5.10;;;;;;;13.28;71.87;99775.48;105565;1257;61119;-89
2024/04/12 04:56:43;;;;;;;7.60;5.80;;;;;;;13.29;71.51;99779.23;105635;1259;72648;-89
2024/04/12 04:59:16;;;;;;;9.70;5.30;;;;;;;13.30;71.32;99774.83;105838;1257;74007;-89
2024/04/12 05:01:43;;;;;;;14.20;4.90;;;;;;;13.32;70.87;99772.95;105628;1262;73410;-90
2024/04/12 05:04:15;;;;;;;12.40;4.50;;;;;;;13.32;70.35;99768.24;105579;1254;61173;-89
2024/04/12 05:06:42;;;;;;;12.90;5.30;;;;;;;13.33;69.76;99770.91;106166;1260;61147;-89
2024/04/12 05:09:09;;;;;;;6.00;4.00;;;;;;;13.33;69.49;99778.13;105943;1257;72590;-89
2024/04/12 05:11:38;;;;;;;14.40;4.60;;;;;;;13.32;69.52;99783.36;105534;1260;75588;-88
2024/04/12 05:14:54;;;;;;;11.60;3.70;;;;;;;13.33;69.77;99781.19;105599;1262;73141;-90
2024/04/12 05:16:56;;;;;;;10.40;4.80;;;;;;;13.34;70.06;99784.53;105519;1257;61052;-90
2024/04/12 05:19:25;;;;;;;8.80;4.50;;;;;;;13.35;70.01;99784.98;105575;1254;61188;-89
2024/04/12 05:21:52;;;;;;;11.40;4.90;;;;;;;13.37;70.11;99790.48;105853;1262;72608;-90
2024/04/12 05:24:24;;;;;;;8.10;4.60;;;;;;;13.38;69.97;99788.45;105892;1254;74230;-89
2024/04/12 05:27:01;;;;;;;7.80;5.00;;;;;;;13.38;69.77;99788.64;105574;1259;73507;-90
2024/04/12 05:29:30;;;;;;;11.80;4.50;;;;;;;13.37;69.32;99787.94;105690;1257;61068;-87
2024/04/12 05:31:57;;;;;;;8.40;4.90;;;;;;;13.37;69.11;99780.22;105533;1262;62873;-87
2024/04/12 05:34:26;;;;;;;19.90;6.20;;;;;;;13.39;68.82;99784.65;106134;1254;73478;-83
2024/04/12 05:37:00;;;;;;;6.90;5.20;;;;;;;13.40;68.50;99792.50;106127;1259;74138;-84
2024/04/12 05:39:27;;;;;;;7.00;4.70;;;;;;;13.42;68.07;99798.15;106032;1257;73664;-84
2024/04/12 05:41:53;;;;;;;7.10;4.70;;;;;;;13.43;68.23;99796.23;105566;1254;61182;-86
2024/04/12 05:44:26;;;;;;;11.80;6.50;;;;;;;13.46;68.06;99799.85;105445;1262;61180;-87
2024/04/12 05:46:52;;;;;;;12.40;6.20;;;;;;;13.48;67.97;99805.29;105492;1260;72774;-86
2024/04/12 05:49:20;;;;;;;21.80;8.30;;;;;;;13.51;68.04;99805.67;105540;1260;61042;-87
2024/04/12 05:51:49;;;;;;;14.00;7.80;;;;;;;13.54;67.82;99811.98;105830;1258;72617;-86
2024/04/12 05:54:18;;;;;;;11.00;7.60;;;;;;;13.57;67.74;99806.02;105694;1259;61052;-87
2024/04/12 05:56:44;;;;;;;7.30;5.50;;;;;;;13.60;67.71;99799.92;105827;1260;61288;-85
2024/04/12 05:59:13;;;;;;;8.30;5.00;;;;;;;13.63;67.16;99800.83;107121;1254;75105;-86
2024/04/12 06:01:45;;;;;;;10.30;4.20;;;;;;;13.66;66.63;99799.22;106550;1254;74210;-85
2024/04/12 06:04:21;;;;;;;13.20;4.70;;;;;;;13.69;66.41;99801.20;106996;1254;73374;-84
2024/04/12 06:06:47;;;;;;;8.80;4.10;;;;;;;13.71;66.64;99801.73;106997;1257;61189;-85
2024/04/12 06:09:20;;;;;;;9.80;4.40;;;;;;;13.75;66.99;99800.09;106707;1260;61151;-86
2024/04/12 06:11:50;;;;;;;10.40;4.00;;;;;;;13.80;66.99;99802.69;106555;1259;73132;-86
2024/04/12 06:14:24;;;;;;;8.80;4.60;;;;;;;13.84;66.35;99805.34;107145;1259;73805;-86
2024/04/12 06:16:57;;;;;;;10.70;4.90;;;;;;;13.86;66.11;99803.62;106836;1254;72477;-84
2024/04/12 06:19:26;;;;;;;9.10;4.60;;;;;;;13.87;66.20;99803.55;107699;1254;61172;-84
2024/04/12 06:21:52;;;;;;;9.80;4.10;;;;;;;13.87;65.97;99804.81;107113;1257;61007;-84
2024/04/12 06:24:37;;;;;;;9.00;4.30;;;;;;;13.87;65.61;99802.65;106337;1259;61189;-88
2024/04/12 06:27:05;;;;;;;9.40;3.40;;;;;;;13.87;64.96;99802.84;105432;1262;73522;-85
2024/04/12 06:29:34;;;;;;;12.30;3.70;;;;;;;13.87;65.00;99801.03;106050;1260;73241;-84
2024/04/12 06:32:00;;;;;;;12.70;4.40;;;;;;;13.87;65.21;99795.25;106088;1259;61065;-86
2024/04/12 06:34:26;;;;;;;16.00;5.60;;;;;;;13.89;65.14;99795.83;105905;1259;61192;-84
2024/04/12 06:37:05;;;;;;;9.20;4.80;;;;;;;13.91;65.06;99802.57;106361;1255;61048;-85
2024/04/12 06:39:35;;;;;;;11.00;3.90;;;;;;;13.93;64.98;99806.06;105642;1260;75109;-85
2024/04/12 06:42:04;;;;;;;5.30;4.00;;;;;;;13.94;64.45;99808.55;105806;1259;73553;-85
2024/04/12 06:44:31;;;;;;;7.90;3.70;;;;;;;13.94;63.18;99808.73;105780;1257;60955;-85
2024/04/12 06:46:58;;;;;;;9.10;3.70;;;;;;;13.95;62.26;99803.98;106016;1260;61119;-86
2024/04/12 06:49:27;;;;;;;8.70;3.80;;;;;;;13.96;62.26;99806.09;105758;1260;61171;-85
2024/04/12 06:52:09;;;;;;;12.10;3.90;;;;;;;13.98;61.97;99804.31;106587;1260;74464;-85
2024/04/12 06:54:41;;;;;;;16.50;4.10;;;;;;;13.99;61.72;99801.34;105462;1259;73974;-86
2024/04/12 06:57:21;;;;;;;7.20;3.80;;;;;;;14.04;63.35;99804.69;105982;1257;61135;-86
2024/04/12 06:59:53;;;;;;;8.10;6.30;;;;;;;14.09;63.25;99804.91;105566;1260;61160;-86
2024/04/12 07:02:26;;;;;;;8.00;4.00;;;;;;;14.16;62.56;99803.56;105875;1262;73821;-86
2024/04/12 07:04:57;;;;;;;7.40;3.00;;;;;;;14.24;62.03;99803.45;106501;1260;73064;-86
2024/04/12 07:07:23;;;;;;;9.20;3.60;;;;;;;14.31;60.75;99799.40;106552;1260;70409;-88
2024/04/12 07:09:57;;;;;;;6.70;2.80;;;;;;;14.39;60.84;99799.08;106184;1258;61185;-86
2024/04/12 07:12:27;;;;;;;5.50;2.70;;;;;;;14.47;59.34;99801.08;107037;1259;61266;-87
2024/04/12 07:14:57;;;;;;;8.30;2.70;;;;;;;14.55;58.42;99795.21;106401;1259;73921;-86
2024/04/12 07:17:25;;;;;;;10.40;3.50;;;;;;;14.62;58.21;99790.23;105531;1260;73977;-86
2024/04/12 07:19:53;;;;;;;5.00;2.80;;;;;;;14.71;58.88;99792.03;106933;1259;71539;-86
2024/04/12 07:22:19;;;;;;;4.20;2.50;;;;;;;14.80;58.34;99792.52;105528;1263;61401;-87
2024/04/12 07:24:50;;;;;;;5.20;2.60;;;;;;;14.89;56.48;99795.06;105858;1262;61316;-87
2024/04/12 07:27:24;;;;;;;4.00;2.40;;;;;;;14.97;55.28;99794.88;105582;1260;74459;-86
2024/04/12 07:29:50;;;;;;;6.40;2.40;;;;;;;15.03;54.89;99798.77;106408;1260;74428;-86
2024/04/12 07:32:18;;;;;;;7.60;2.50;;;;;;;15.09;54.38;99794.48;105687;1258;61178;-86
2024/04/12 07:35:00;;;;;;;5.80;2.50;;;;;;;15.14;53.98;99801.30;107025;1254;61000;-86
2024/04/12 07:37:32;;;;;;;4.60;2.80;;;;;;;15.21;54.30;99801.99;106836;1253;61192;-87
2024/04/12 07:40:18;;;;;;;4.90;2.50;;;;;;;15.27;53.64;99805.54;106761;1260;74776;-86
2024/04/12 07:42:48;;;;;;;4.30;2.30;;;;;;;15.35;53.36;99802.29;106417;1260;74373;-86
2024/04/12 07:45:25;;;;;;;4.60;2.40;;;;;;;15.41;52.95;99803.30;106134;1255;71537;-86
2024/04/12 07:48:00;;;;;;;4.20;2.10;;;;;;;15.47;52.27;99796.77;106363;1256;61092;-85
2024/04/12 07:50:29;;;;;;;2.80;1.90;;;;;;;15.51;51.42;99790.71;108647;1254;60987;-85
2024/04/12 07:52:59;;;;;;;6.20;3.00;;;;;;;15.54;50.41;99790.56;108798;1259;74063;-85
2024/04/12 07:55:25;;;;;;;6.80;2.30;;;;;;;15.56;50.04;99789.19;108486;1260;74227;-83
2024/04/12 07:57:54;;;;;;;7.40;2.30;;;;;;;15.57;50.14;99784.82;108614;1260;59670;-82
2024/04/12 08:00:35;;;;;;;4.50;2.20;;;;;;;15.58;49.89;99779.84;108796;1254;59853;-84
2024/04/12 08:03:06;;;;;;;3.40;2.40;;;;;;;15.61;49.71;99776.02;108651;1259;60155;-84
2024/04/12 08:08:27;;;;;;;4.90;2.90;;;;;;;15.65;49.88;99768.67;108545;1254;74174;-83
2024/04/12 08:10:57;;;;;;;5.90;2.40;;;;;;;15.69;49.72;99770.58;108118;1262;73586;-86
2024/04/12 08:13:37;;;;;;;3.80;2.00;;;;;;;15.74;49.31;99766.11;106039;1257;61049;-84
2024/04/12 08:16:09;;;;;;;7.40;2.90;;;;;;;15.79;49.87;99765.79;105925;1259;61073;-84
2024/04/12 08:18:43;;;;;;;3.70;1.90;;;;;;;15.85;49.29;99764.84;107219;1260;74287;-83
2024/04/12 08:21:19;;;;;;;4.40;2.40;;;;;;;15.90;48.74;99762.50;105873;1264;74163;-85
2024/04/12 08:23:45;;;;;;;2.90;1.80;;;;;;;15.95;49.83;99747.14;105632;1255;73435;-85
2024/04/12 08:26:11;;;;;;;6.10;2.00;;;;;;;16.02;49.92;99743.61;107764;1260;61185;-83
2024/04/12 08:28:40;;;;;;;4.00;2.20;;;;;;;16.10;49.35;99742.69;105608;1254;61254;-85
2024/04/12 08:31:10;;;;;;;5.40;2.00;;;;;;;16.18;49.51;99737.06;107515;1258;74922;-82
2024/04/12 08:33:40;;;;;;;3.40;2.20;;;;;;;16.27;48.60;99733.32;105716;1260;74531;-83
2024/04/12 08:36:13;;;;;;;4.50;2.00;;;;;;;16.37;48.44;99737.34;105822;1254;70706;-81
2024/04/12 08:38:54;;;;;;;2.80;1.80;;;;;;;16.44;48.39;99729.56;105852;1260;61078;-85
2024/04/12 08:41:24;;;;;;;2.00;1.80;;;;;;;16.54;48.91;99731.19;105912;1254;61161;-85
2024/04/12 08:43:59;;;;;;;7.10;2.40;;;;;;;16.63;48.55;99721.84;105643;1260;74168;-86
2024/04/12 08:46:33;;;;;;;4.80;2.10;;;;;;;16.73;48.34;99716.05;105723;1254;74514;-84
2024/04/12 08:49:00;;;;;;;6.90;2.80;;;;;;;16.83;47.88;99713.54;105441;1263;72587;-83
2024/04/12 08:51:32;;;;;;;5.40;2.40;;;;;;;16.91;48.02;99717.33;105671;1260;61782;-85
2024/04/12 08:54:03;;;;;;;3.60;2.40;;;;;;;16.99;47.76;99713.81;105579;1260;61259;-83
2024/04/12 08:56:29;;;;;;;3.90;2.50;;;;;;;17.08;47.53;99713.15;108095;1260;74452;-83
2024/04/12 08:58:59;;;;;;;3.90;2.40;;;;;;;17.16;46.33;99708.70;105707;1259;61176;-85
2024/04/12 09:01:26;;;;;;;14.80;2.60;;;;;;;17.23;45.81;99707.61;105555;1254;73468;-82
2024/04/12 09:04:03;;;;;;;4.50;2.40;;;;;;;17.29;45.04;99701.23;105681;1260;61218;-82
2024/04/12 09:06:34;;;;;;;6.50;2.20;;;;;;;17.34;44.35;99702.10;105486;1260;61160;-82
2024/04/12 09:09:01;;;;;;;3.80;2.20;;;;;;;17.39;43.66;99698.86;105765;1255;71374;-82
2024/04/12 09:11:31;;;;;;;4.30;2.10;;;;;;;17.43;43.16;99698.92;105733;1259;74073;-83
2024/04/12 09:14:09;;;;;;;4.60;2.30;;;;;;;17.45;42.75;99696.73;105602;1260;73466;-83
2024/04/12 09:16:47;;;;;;;5.20;2.70;;;;;;;17.49;42.59;99697.67;105765;1254;61214;-83
2024/04/12 09:19:14;;;;;;;7.10;2.50;;;;;;;17.53;42.27;99695.77;105580;1260;61316;-83
2024/04/12 09:22:09;;;;;;;4.40;2.20;;;;;;;17.56;42.99;99697.94;105512;1254;73888;-84
2024/04/12 09:24:39;;;;;;;4.20;2.10;;;;;;;17.61;43.21;99699.89;105726;1254;75019;-81
2024/04/12 09:27:12;;;;;;;4.40;1.80;;;;;;;17.65;42.70;99697.53;105468;1254;73511;-83
2024/04/12 09:29:44;;;;;;;3.30;1.90;;;;;;;17.72;42.82;99696.11;105615;1260;61166;-83
2024/04/12 09:34:56;;;;;;;5.10;1.90;;;;;;;17.86;42.98;99690.30;105501;1263;73804;-83
2024/04/12 09:37:29;;;;;;;2.80;2.30;;;;;;;17.95;42.67;99693.80;105348;1260;61262;-84
2024/04/12 09:42:45;;;;;;;3.40;2.10;;;;;;;18.10;41.79;99690.06;105900;1258;61196;-82
2024/04/12 09:45:19;;;;;;;3.80;2.40;;;;;;;18.17;41.60;99686.80;105420;1260;61122;-83
2024/04/12 10:38:34;;;;;;;2.60;1.50;;;;;;;20.87;37.50;99602.15;106134;1254;61173;-87
2024/04/12 10:41:03;;;;;;;3.10;1.40;;;;;;;21.14;36.01;99601.05;108231;1253;60315;-85
2024/04/12 10:43:35;;;;;;;3.20;2.10;;;;;;;21.38;35.57;99600.67;108636;1254;72350;-88
2024/04/12 10:46:04;;;;;;;3.60;1.50;;;;;;;21.57;34.95;99599.52;107694;1255;74017;-87
2024/04/12 10:48:33;;;;;;;4.20;2.10;;;;;;;21.77;34.87;99599.35;105838;1254;73285;-87
2024/04/12 10:51:00;;;;;;;2.60;1.50;;;;;;;21.95;34.81;99598.61;105998;1261;61163;-86
2024/04/12 10:53:29;;;;;;;2.50;1.70;;;;;;;22.16;34.91;99592.25;105715;1254;61643;-89
2024/04/12 10:55:55;;;;;;;5.20;1.90;;;;;;;22.38;34.82;99590.08;106241;1255;74593;-88
2024/04/12 10:58:27;;;;;;;3.10;1.50;;;;;;;22.56;34.22;99587.30;106537;1260;73240;-87
2024/04/12 11:00:57;;;;;;;3.80;1.70;;;;;;;22.76;34.08;99581.11;106222;1260;73407;-88
2024/04/12 11:03:24;;;;;;;2.80;1.70;;;;;;;22.98;33.67;99583.26;106582;1253;61252;-89
2024/04/12 11:06:03;;;;;;;2.90;1.90;;;;;;;23.19;33.16;99581.20;108020;1254;59697;-89
2024/04/12 11:08:51;;;;;;;5.60;2.00;;;;;;;23.46;32.26;99578.95;108440;1253;74503;-87
2024/04/12 11:11:26;;;;;;;4.50;1.70;;;;;;;23.65;31.98;99579.37;108406;1254;74330;-87
2024/04/12 11:13:59;;;;;;;5.20;1.70;;;;;;;23.84;31.94;99572.40;108273;1254;71628;-89
2024/04/12 11:33:04;;;;;;;2.40;1.50;;;;;;;24.85;30.89;99550.35;109255;1254;58878;-86
2024/04/12 11:35:31;;;;;;;3.00;1.70;;;;;;;25.00;29.84;99548.70;109391;1254;73769;-86
2024/04/12 11:37:58;;;;;;;2.30;1.60;;;;;;;25.10;29.72;99542.29;109151;1254;74123;-88
2024/04/12 11:40:25;;;;;;;2.80;1.70;;;;;;;25.21;29.82;99534.91;108459;1254;72761;-87
2024/04/12 11:42:56;;;;;;;2.20;1.80;;;;;;;25.38;29.62;99533.96;107876;1253;61074;-86
2024/04/12 11:45:25;;;;;;;2.00;1.50;;;;;;;25.60;29.74;99531.00;105717;1254;61080;-89
2024/04/12 11:47:51;;;;;;;3.40;1.70;;;;;;;25.80;29.05;99531.27;106461;1254;75178;-88
2024/04/12 11:50:17;;;;;;;3.90;1.90;;;;;;;25.95;29.08;99522.48;105895;1260;61263;-88
2024/04/12 11:52:45;;;;;;;4.30;2.00;;;;;;;26.11;29.32;99521.58;105917;1259;61061;-89
2024/04/12 11:55:12;;;;;;;3.70;2.00;;;;;;;26.24;29.09;99523.58;105771;1253;61103;-88
2024/04/12 11:57:41;;;;;;;4.70;2.00;;;;;;;26.35;28.93;99515.90;106233;1260;61121;-88
2024/04/12 12:00:10;;;;;;;3.40;1.90;;;;;;;26.47;28.67;99512.39;106214;1260;73491;-87
2024/04/12 12:02:43;;;;;;;4.10;2.10;;;;;;;26.57;28.74;99508.67;106145;1254;74169;-89
2024/04/12 12:05:09;;;;;;;4.00;2.30;;;;;;;26.63;28.69;99506.89;105726;1254;72408;-88
2024/04/12 12:07:35;;;;;;;4.30;1.90;;;;;;;26.69;28.73;99505.62;105833;1259;61229;-89
2024/04/12 12:10:03;;;;;;;2.90;2.40;;;;;;;26.75;28.28;99501.77;106922;1259;61185;-86
2024/04/12 12:12:30;;;;;;;2.30;1.70;;;;;;;26.82;28.20;99501.35;108251;1254;73656;-86
2024/04/12 12:14:58;;;;;;;3.20;1.90;;;;;;;26.88;28.01;99496.89;108489;1254;73291;-87
2024/04/12 12:17:24;;;;;;;4.50;1.70;;;;;;;26.97;28.19;99494.02;106505;1254;72685;-88
2024/04/12 12:19:51;;;;;;;4.90;1.70;;;;;;;27.09;28.45;99490.95;106057;1254;61173;-87
2024/04/12 12:22:18;;;;;;;3.80;1.70;;;;;;;27.24;28.52;99488.56;106489;1254;60956;-87
2024/04/12 12:24:45;;;;;;;2.30;1.60;;;;;;;27.41;28.13;99487.59;105996;1260;73985;-88
2024/04/12 12:27:11;;;;;;;3.10;1.70;;;;;;;27.51;27.67;99486.54;106116;1254;74144;-88
2024/04/12 12:29:37;;;;;;;6.80;1.90;;;;;;;27.62;27.72;99479.31;106304;1259;61179;-88
2024/04/12 12:32:07;;;;;;;3.40;1.60;;;;;;;27.77;28.02;99477.62;105630;1254;61188;-89
2024/04/12 12:34:33;;;;;;;4.70;2.00;;;;;;;27.96;27.71;99478.09;107012;1259;61271;-88
2024/04/12 12:37:00;;;;;;;4.60;1.30;;;;;;;28.12;27.33;99472.15;105625;1260;61176;-89
2024/04/12 12:39:31;;;;;;;4.60;1.40;;;;;;;28.32;27.50;99471.90;105879;1254;75719;-89
2024/04/12 12:41:58;;;;;;;2.20;1.50;;;;;;;28.51;26.87;99468.23;105597;1254;73976;-88
2024/04/12 12:44:28;;;;;;;3.50;1.30;;;;;;;28.67;26.65;99470.04;105605;1257;61172;-88
2024/04/12 12:46:59;;;;;;;3.00;1.30;;;;;;;28.82;26.49;99464.02;105711;1257;61359;-87
2024/04/12 12:49:25;;;;;;;4.80;1.70;;;;;;;28.95;26.35;99462.41;105699;1254;74510;-89
2024/04/12 12:51:52;;;;;;;12.20;1.80;;;;;;;29.04;26.31;99461.73;105582;1260;61150;-90
2024/04/12 12:54:21;;;;;;;3.70;1.50;;;;;;;29.09;26.21;99457.41;105805;1260;60533;-88
2024/04/12 12:56:47;;;;;;;4.60;1.70;;;;;;;29.09;26.12;99458.31;105772;1257;61192;-88
2024/04/12 12:59:15;;;;;;;5.30;1.80;;;;;;;29.09;26.45;99457.38;105794;1254;61247;-88
2024/04/12 13:01:41;;;;;;;3.80;1.50;;;;;;;29.13;26.13;99454.27;105710;1254;73948;-86